Roth Airport ETHR

Flugplatz Daten

Name: Roth Airport

Ident: ETHR

Lat: 49,21749878

Long: 11,1001997

Platzhöhe: 1268 ft

IataCode:

City:

Metar

2020/06/09 22:56
KOVL 092256Z AUTO 20004KT 10SM SCT070 SCT110 25/19 A2952 RMK AO2 LTG DSNT W THRU NETHRU NE

Taf

2012/07/05 05:33
TAF ETHR 050420Z 0505/0523 07003KT 9999 NSW BKN080 PROB30 0505/0508 02008KT 3500 TSRA FEW003 BKN025CB
Gewünschte Webcam nicht vorhanden? Dann fügen Sie eine hinzu. Sie wird dann so schnell wie möglich freigeschaltet
Url: Title: